Aviation Digital Data Service (ADDS)

Output produced by METARs form (1025 UTC 02 August 2021)
found at http://aviationweather.gov/metar/data/
 
Forecast for: AMD
Text: TAF AMD ETMN 020832Z 0208/0217 29015KT 9999 NSW SCT020 BKN060
Forecast period: 0800 to 1700 UTC 02 August 2021
Forecast type: FROM: standard forecast or significant change
Winds: from the WNW (290 degrees) at 17 MPH (15 knots; 7.7 m/s)
Visibility: 6 or more miles (10+ km)
Ceiling: 6000 feet AGL
Clouds: scattered clouds at 2000 feet AGL
broken clouds at 6000 feet AGL
Weather: NSW  (no significant weather)
Text: TEMPO 0208/0217 30015G25KT 3500 SHRA SCT015 BKN020 BKN050
Forecast period: 0800 to 1700 UTC 02 August 2021
Forecast type: TEMPORARY: The following changes expected for less than half the time period
Winds: from the WNW (300 degrees) at 17 MPH (15 knots; 7.7 m/s)
gusting to 29 MPH (25 knots; 12.9 m/s)
Visibility: 2.17 miles (3.49 km)
Ceiling: 2000 feet AGL
Clouds: scattered clouds at 1500 feet AGL
broken clouds at 2000 feet AGL
broken clouds at 5000 feet AGL
Weather: SHRA  (rain showers)